Tuesday, April 24, 2018, 4:25 AM EDT
Back to Local

KIJD, Willimantic Windham Airport

Location: North Windham, CT, United States Lat: 41.75
Local Time: 4:25 AM EDT ( 8:25 GMT) Lon: -72.183
Time Zone: US/Eastern Elev: 246 ft

Show me the last for .
Show Decoded

2018-04-24 03:52 METAR KIJD 240752Z AUTO 00000KT 10SM CLR 01/M02 A3043 RMK AO2 SLP304 T00111022 $
                 =
2018-04-24 02:52 METAR KIJD 240652Z AUTO 00000KT 10SM CLR 02/M02 A3043 RMK AO2 SLP303 T00171022 $
                 =
2018-04-24 01:52 METAR KIJD 240552Z AUTO 00000KT 10SM CLR 02/M02 A3044 RMK AO2 SLP308 T00171017
                 10122 20017 58006 $ =
2018-04-24 00:52 METAR KIJD 240452Z AUTO 00000KT 10SM CLR 03/M02 A3045 RMK AO2 SLP310 T00281017
                 402001017 $ =
2018-04-23 23:52 METAR KIJD 240352Z AUTO 00000KT 10SM CLR 04/M02 A3045 RMK AO2 SLP312 T00441017 $
                 =
2018-04-23 22:52 METAR KIJD 240252Z AUTO 00000KT 10SM CLR 07/M03 A3046 RMK AO2 SLP314 T00671028
                 51007 $ =
2018-04-23 21:52 METAR KIJD 240152Z AUTO 00000KT 10SM CLR 08/M04 A3045 RMK AO2 SLP312 T00781044 $
                 =
2018-04-23 20:52 METAR KIJD 240052Z AUTO 18004KT 10SM CLR 11/M05 A3045 RMK AO2 SLP312 T01061050 $
                 =
2018-04-23 19:52 METAR KIJD 232352Z AUTO 17008KT 10SM CLR 12/M06 A3043 RMK AO2 SLP307 T01221056
                 10200 20122 53010 $ =
2018-04-23 18:52 METAR KIJD 232252Z AUTO 18012KT 10SM CLR 15/M05 A3042 RMK AO2 SLP302 T01501050 $
                 =
2018-04-23 17:52 METAR KIJD 232152Z AUTO 20012KT 10SM CLR 17/M04 A3041 RMK AO2 SLP300 T01671039 $
                 =
2018-04-23 16:52 METAR KIJD 232052Z AUTO 16012G18KT 10SM CLR 18/M04 A3041 RMK AO2 SLP297
                 T01781039 55011 $ =
2018-04-23 15:52 METAR KIJD 231952Z AUTO 19013KT 10SM CLR 19/M04 A3040 RMK AO2 SLP296 T01941044 $
                 =
2018-04-23 14:52 METAR KIJD 231852Z AUTO VRB04KT 10SM CLR 19/M09 A3041 RMK AO2 SLP299 T01891089 $
                 =
2018-04-23 13:52 METAR KIJD 231752Z AUTO VRB03KT 10SM CLR 18/M06 A3044 RMK AO2 SLP307 T01831061
                 10189 20028 58017 $ =
2018-04-23 12:52 METAR KIJD 231652Z AUTO VRB03KT 10SM CLR 18/M07 A3046 RMK AO2 SLP313 T01781072 $
                 =
2018-04-23 11:52 METAR KIJD 231552Z AUTO VRB04KT 10SM CLR 16/M08 A3048 RMK AO2 SLP320 T01611078 $
                 =
2018-04-23 10:52 METAR KIJD 231452Z AUTO 00000KT 10SM CLR 15/M07 A3049 RMK AO2 SLP324 T01501072
                 58006 $ =
2018-04-23 09:52 METAR KIJD 231352Z AUTO VRB03KT 10SM CLR 13/M06 A3050 RMK AO2 SLP328 T01331061 $
                 =
2018-04-23 08:52 METAR KIJD 231252Z AUTO 08003KT 10SM CLR 08/M02 A3050 RMK AO2 SLP330 T00831022 $
                 =
2018-04-23 07:52 METAR KIJD 231152Z AUTO 00000KT 10SM CLR 03/M02 A3051 RMK AO2 SLP332 T00281022
                 10028 21017 52015 $ =
2018-04-23 06:52 METAR KIJD 231052Z AUTO 00000KT 10SM CLR 00/M03 A3050 RMK AO2 SLP328 T00001028 $
                 =
2018-04-23 05:52 METAR KIJD 230952Z AUTO 06003KT 10SM CLR M01/M04 A3047 RMK AO2 SLP320 T10111039
                 $ =
2018-04-23 04:52 METAR KIJD 230852Z AUTO 00000KT 10SM CLR M01/M04 A3046 RMK AO2 SLP316 T10061039
                 53015 $ =

Support USWX by starting your Amazon purchase here.